Time;durP1;ratioP1;P1;durP2;ratioP2;P2;SDS_P1;SDS_P2;PMS_P1;PMS_P2;Temp;Humidity;BMP_temperature;BMP_pressure;BME280_temperature;BME280_humidity;BME280_pressure;Samples;Min_cycle;Max_cycle;Signal;HPM_P1;HPM_P2
2023/03/11 00:01:05;;;;;;;4.70;0.73;;;4.80;1.00;;;;;;4992546;28;20526;-54
2023/03/11 00:03:30;;;;;;;4.80;0.90;;;3.30;1.00;;;;;;4992570;28;20390;-55
2023/03/11 00:06:00;;;;;;;5.25;0.52;;;3.30;1.00;;;;;;4994223;28;21271;-55
2023/03/11 00:08:27;;;;;;;4.78;0.80;;;3.20;1.00;;;;;;5011907;28;20407;-55
2023/03/11 00:10:55;;;;;;;4.70;1.10;;;4.40;1.00;;;;;;5010452;28;20424;-57
2023/03/11 00:13:21;;;;;;;5.38;0.90;;;3.20;1.00;;;;;;5000921;28;20776;-54
2023/03/11 00:15:49;;;;;;;4.90;0.90;;;3.20;1.00;;;;;;5010055;28;20435;-54
2023/03/11 00:18:16;;;;;;;6.35;0.88;;;3.10;1.00;;;;;;5011429;28;20408;-57
2023/03/11 00:20:44;;;;;;;5.60;0.77;;;2.80;1.00;;;;;;5010335;28;20407;-57
2023/03/11 00:23:11;;;;;;;4.30;0.77;;;2.80;1.00;;;;;;5011519;28;20479;-55
2023/03/11 00:25:38;;;;;;;4.40;0.82;;;2.80;1.00;;;;;;5010642;28;20408;-58
2023/03/11 00:28:09;;;;;;;4.55;0.90;;;2.80;1.00;;;;;;5010192;28;20400;-55
2023/03/11 00:30:35;;;;;;;4.80;1.10;;;2.80;1.00;;;;;;5010736;28;20412;-58
2023/03/11 00:33:01;;;;;;;4.57;0.80;;;2.80;14.70;;;;;;5011294;28;20845;-55
2023/03/11 00:35:30;;;;;;;4.35;0.60;;;3.30;1.00;;;;;;5010839;28;20432;-55
2023/03/11 00:37:58;;;;;;;4.95;0.90;;;2.80;11.40;;;;;;5010420;28;20397;-54
2023/03/11 00:40:25;;;;;;;5.57;1.05;;;2.80;13.00;;;;;;5010972;28;20389;-55
2023/03/11 00:42:51;;;;;;;4.53;0.70;;;2.80;1.00;;;;;;5005805;28;20900;-55
2023/03/11 00:45:17;;;;;;;4.60;0.80;;;2.80;1.00;;;;;;5011147;28;20393;-55
2023/03/11 00:47:43;;;;;;;4.30;0.90;;;2.80;1.00;;;;;;5010106;28;20404;-55
2023/03/11 00:50:13;;;;;;;4.70;1.00;;;4.10;1.00;;;;;;5010455;28;20416;-57
2023/03/11 00:52:40;;;;;;;4.95;0.90;;;2.80;99.90;;;;;;5010072;28;20428;-57
2023/03/11 00:55:06;;;;;;;5.30;1.30;;;2.90;58.60;;;;;;5010602;28;20429;-54
2023/03/11 00:57:32;;;;;;;5.90;1.20;;;2.90;62.10;;;;;;5010346;28;20393;-56
2023/03/11 00:59:58;;;;;;;4.50;0.83;;;2.80;99.90;;;;;;5010132;28;20539;-56
2023/03/11 01:02:24;;;;;;;6.60;0.80;;;2.70;61.20;;;;;;5010726;28;20889;-56
2023/03/11 01:04:54;;;;;;;5.63;0.93;;;2.60;81.90;;;;;;5009592;28;20396;-56
2023/03/11 01:07:20;;;;;;;4.60;0.70;;;2.60;99.90;;;;;;5010362;28;20397;-59
2023/03/11 01:09:46;;;;;;;4.22;0.80;;;2.60;99.90;;;;;;5009926;28;20389;-57
2023/03/11 01:12:11;;;;;;;5.00;0.90;;;2.60;99.90;;;;;;5009073;28;20431;-56
2023/03/11 01:14:37;;;;;;;4.90;1.00;;;2.40;99.90;;;;;;5004045;28;20419;-59
2023/03/11 01:17:03;;;;;;;8.20;0.93;;;2.40;1.00;;;;;;5010204;28;20404;-56
2023/03/11 01:19:28;;;;;;;5.07;1.30;;;2.40;1.00;;;;;;5010574;28;20758;-56
2023/03/11 01:21:54;;;;;;;4.35;0.70;;;2.40;1.00;;;;;;5009762;28;20431;-56
2023/03/11 01:24:19;;;;;;;4.57;0.90;;;2.40;99.90;;;;;;5010051;28;20440;-56
2023/03/11 01:26:45;;;;;;;5.20;0.95;;;2.40;1.00;;;;;;5010042;28;20425;-56
2023/03/11 01:29:11;;;;;;;4.47;1.00;;;2.40;1.00;;;;;;5010102;28;20401;-56
2023/03/11 01:31:36;;;;;;;4.82;1.10;;;2.30;1.00;;;;;;5009592;28;20737;-59
2023/03/11 01:34:02;;;;;;;5.53;0.90;;;2.40;1.00;;;;;;5009487;28;20944;-56
2023/03/11 01:36:27;;;;;;;5.57;0.97;;;2.30;1.00;;;;;;5009686;28;20483;-56
2023/03/11 01:38:53;;;;;;;6.10;0.80;;;2.30;1.00;;;;;;5009254;28;20459;-56
2023/03/11 01:41:19;;;;;;;6.83;1.10;;;2.40;1.00;;;;;;5009742;28;20396;-58
2023/03/11 01:43:44;;;;;;;6.72;1.45;;;2.40;1.00;;;;;;5009364;28;20397;-56
2023/03/11 01:46:19;;;;;;;5.55;1.40;;;2.50;1.00;;;;;;5009943;28;20439;-56
2023/03/11 01:48:55;;;;;;;5.00;1.10;;;2.60;1.00;;;;;;5009352;28;20412;-54
2023/03/11 01:51:39;;;;;;;4.80;1.00;;;2.60;99.90;;;;;;5009827;28;20906;-53
2023/03/11 01:54:32;;;;;;;5.00;0.70;;;2.60;1.00;;;;;;5009484;28;20432;-56
2023/03/11 01:57:01;;;;;;;4.10;0.75;;;2.40;99.90;;;;;;5005890;28;20660;-57
2023/03/11 01:59:30;;;;;;;4.68;1.00;;;2.40;99.90;;;;;;5009661;28;20873;-57
2023/03/11 02:02:05;;;;;;;4.40;1.13;;;2.30;99.90;;;;;;5009152;28;20966;-56
2023/03/11 02:04:33;;;;;;;4.90;1.10;;;2.30;99.90;;;;;;5009857;28;20407;-56
2023/03/11 02:07:00;;;;;;;4.78;0.80;;;3.40;99.90;;;;;;5009199;28;20400;-56
2023/03/11 02:09:25;;;;;;;4.30;0.70;;;2.30;99.90;;;;;;5009542;28;20404;-56
2023/03/11 02:11:52;;;;;;;5.00;0.90;;;2.20;99.90;;;;;;5008824;28;20424;-56
2023/03/11 02:14:19;;;;;;;5.80;0.80;;;2.20;99.90;;;;;;5009541;28;20385;-56
2023/03/11 02:16:44;;;;;;;7.43;1.23;;;2.10;99.90;;;;;;5008453;28;20495;-56
2023/03/11 02:19:37;;;;;;;7.97;1.20;;;2.10;99.90;;;;;;5009422;28;20634;-56
2023/03/11 02:22:03;;;;;;;6.50;0.93;;;2.10;99.90;;;;;;5009257;28;20487;-56
2023/03/11 02:25:09;;;;;;;5.60;1.00;;;2.10;99.90;;;;;;5009311;28;20409;-57
2023/03/11 02:27:40;;;;;;;5.65;1.00;;;2.20;99.90;;;;;;5009331;28;20411;-57
2023/03/11 02:30:08;;;;;;;5.10;1.00;;;2.10;99.90;;;;;;5009236;28;20440;-58
2023/03/11 02:32:34;;;;;;;5.03;0.90;;;2.10;99.90;;;;;;5008850;28;20516;-56
2023/03/11 02:34:59;;;;;;;5.45;1.00;;;2.10;99.90;;;;;;5008608;28;20476;-56
2023/03/11 02:37:25;;;;;;;4.40;0.80;;;2.00;95.90;;;;;;5009306;28;20900;-56
2023/03/11 02:39:53;;;;;;;5.67;1.03;;;2.00;99.90;;;;;;5008696;28;20439;-56
2023/03/11 02:42:25;;;;;;;5.97;1.00;;;1.90;99.90;;;;;;5009386;28;20492;-56
2023/03/11 02:45:09;;;;;;;6.80;1.10;;;1.90;99.90;;;;;;5008334;28;20450;-56
2023/03/11 02:47:37;;;;;;;4.70;0.90;;;1.90;99.90;;;;;;5009198;28;20411;-56
2023/03/11 02:50:04;;;;;;;4.30;1.00;;;1.90;99.90;;;;;;5008776;28;20499;-56
2023/03/11 02:52:33;;;;;;;5.13;1.10;;;1.90;99.90;;;;;;5010948;28;20425;-57
2023/03/11 02:54:59;;;;;;;5.13;1.10;;;1.80;99.90;;;;;;5011982;28;20882;-56
2023/03/11 02:57:25;;;;;;;4.60;0.87;;;3.20;99.90;;;;;;5012981;28;20392;-56
2023/03/11 02:59:51;;;;;;;7.90;1.23;;;1.60;99.90;;;;;;5012389;28;20401;-56
2023/03/11 03:02:16;;;;;;;4.50;0.70;;;1.60;99.90;;;;;;5012955;28;20403;-56
2023/03/11 03:04:42;;;;;;;4.50;0.68;;;1.50;91.20;;;;;;5011948;28;20437;-56
2023/03/11 03:07:08;;;;;;;5.70;0.80;;;1.40;60.20;;;;;;5012828;28;20451;-56
2023/03/11 03:09:35;;;;;;;4.33;0.60;;;1.40;31.90;;;;;;5012474;28;20508;-56
2023/03/11 03:12:03;;;;;;;5.40;0.80;;;1.30;1.00;;;;;;5012101;28;20424;-58
2023/03/11 03:14:29;;;;;;;5.70;0.93;;;1.30;1.00;;;;;;5012267;28;20396;-56
2023/03/11 03:16:55;;;;;;;4.22;0.70;;;1.30;1.00;;;;;;5011535;28;20396;-56
2023/03/11 03:19:20;;;;;;;6.03;0.93;;;1.30;1.00;;;;;;5012353;28;20947;-56
2023/03/11 03:21:46;;;;;;;5.20;0.97;;;1.20;1.00;;;;;;5012343;28;20401;-57
2023/03/11 03:24:11;;;;;;;4.30;0.80;;;1.20;1.00;;;;;;5012642;28;20400;-56
2023/03/11 03:26:37;;;;;;;4.60;0.70;;;1.20;1.00;;;;;;4997191;28;20753;-59
2023/03/11 03:29:04;;;;;;;7.40;1.20;;;1.20;1.00;;;;;;5010893;28;20389;-59
2023/03/11 03:31:30;;;;;;;8.60;0.93;;;1.20;1.00;;;;;;4997514;28;20432;-56
2023/03/11 03:33:56;;;;;;;5.53;0.85;;;1.20;1.00;;;;;;5010526;28;20404;-56
2023/03/11 03:36:22;;;;;;;4.47;0.70;;;1.20;1.00;;;;;;5011946;28;20397;-57
2023/03/11 03:38:52;;;;;;;5.67;0.83;;;1.30;1.00;;;;;;5011385;28;20424;-56
2023/03/11 03:41:18;;;;;;;4.00;0.60;;;3.20;1.00;;;;;;5011813;28;20734;-56
2023/03/11 03:43:44;;;;;;;5.03;0.83;;;1.20;1.00;;;;;;5010826;28;20399;-56
2023/03/11 03:46:09;;;;;;;5.03;1.13;;;1.10;1.00;;;;;;5012085;28;20404;-56
2023/03/11 03:48:35;;;;;;;5.93;1.10;;;1.10;1.00;;;;;;5011932;28;20527;-56
2023/03/11 03:51:06;;;;;;;4.57;0.70;;;1.10;1.00;;;;;;5010761;28;20512;-56
2023/03/11 03:53:36;;;;;;;6.00;0.83;;;1.10;1.00;;;;;;5011775;28;20754;-55
2023/03/11 03:56:07;;;;;;;5.22;1.10;;;1.10;1.00;;;;;;5010966;28;20400;-55
2023/03/11 03:58:32;;;;;;;4.47;1.00;;;1.20;1.00;;;;;;5011556;28;20459;-55
2023/03/11 04:00:59;;;;;;;7.50;1.10;;;1.10;1.00;;;;;;5010720;28;20873;-55
2023/03/11 04:03:26;;;;;;;6.75;0.95;;;1.10;1.00;;;;;;5011319;28;20539;-55
2023/03/11 04:05:51;;;;;;;5.18;0.80;;;1.10;1.00;;;;;;5011115;28;20400;-56
2023/03/11 04:08:17;;;;;;;7.00;0.90;;;1.10;1.00;;;;;;5011559;28;20881;-55
2023/03/11 04:10:43;;;;;;;5.10;1.27;;;1.10;1.00;;;;;;5010700;28;20452;-56
2023/03/11 04:13:09;;;;;;;4.20;0.70;;;0.20;1.00;;;;;;5011274;28;20432;-55
2023/03/11 04:15:38;;;;;;;5.93;1.10;;;1.00;1.00;;;;;;5010957;28;20425;-55
2023/03/11 04:18:05;;;;;;;5.28;0.95;;;1.00;1.00;;;;;;5010568;28;20404;-55
2023/03/11 04:20:30;;;;;;;5.00;1.13;;;1.00;1.00;;;;;;5010681;28;20389;-55
2023/03/11 04:22:56;;;;;;;7.03;1.10;;;0.90;9.50;;;;;;5010046;28;20959;-56
2023/03/11 04:25:21;;;;;;;5.20;1.00;;;1.00;17.90;;;;;;5011256;28;20406;-56
2023/03/11 04:27:48;;;;;;;4.75;1.00;;;1.00;15.60;;;;;;5010368;28;20504;-56
2023/03/11 04:30:15;;;;;;;4.60;1.05;;;0.90;11.60;;;;;;5010846;28;20835;-55
2023/03/11 04:32:42;;;;;;;4.90;0.80;;;2.00;10.90;;;;;;5010055;28;20806;-59
2023/03/11 04:35:07;;;;;;;6.07;0.98;;;1.60;63.60;;;;;;5010628;28;20457;-56
2023/03/11 04:37:33;;;;;;;5.57;0.70;;;0.90;96.60;;;;;;5011294;28;20434;-55
2023/03/11 04:39:59;;;;;;;5.10;1.00;;;0.80;99.90;;;;;;5009985;28;20530;-55
2023/03/11 04:42:26;;;;;;;6.10;0.80;;;0.80;99.90;;;;;;5008948;28;20871;-55
2023/03/11 04:44:52;;;;;;;7.83;1.10;;;0.70;99.90;;;;;;5008252;28;20428;-56
2023/03/11 04:47:18;;;;;;;4.55;0.90;;;0.70;99.90;;;;;;5010419;28;20462;-57
2023/03/11 04:49:43;;;;;;;4.35;0.88;;;0.80;99.90;;;;;;5009771;28;20808;-55
2023/03/11 04:52:09;;;;;;;5.60;1.20;;;0.80;99.90;;;;;;5010409;28;20429;-55
2023/03/11 04:54:35;;;;;;;4.60;1.00;;;0.90;99.90;;;;;;5010239;28;20500;-55
2023/03/11 04:57:01;;;;;;;5.50;1.05;;;0.90;99.90;;;;;;5008396;28;20595;-55
2023/03/11 04:59:26;;;;;;;6.40;1.00;;;0.90;99.90;;;;;;5010523;28;20528;-55
2023/03/11 05:01:52;;;;;;;7.47;1.30;;;0.90;99.90;;;;;;5009458;28;20431;-55
2023/03/11 05:04:18;;;;;;;7.70;0.90;;;1.00;99.90;;;;;;5010342;28;20429;-55
2023/03/11 05:06:43;;;;;;;7.88;1.05;;;1.00;99.90;;;;;;5009177;28;20407;-55
2023/03/11 05:09:09;;;;;;;7.33;1.20;;;1.00;99.90;;;;;;5010500;28;20797;-55
2023/03/11 05:11:34;;;;;;;4.57;0.90;;;1.00;99.90;;;;;;5009568;28;20431;-55
2023/03/11 05:14:00;;;;;;;5.18;1.20;;;1.00;99.90;;;;;;4997393;28;20390;-55
2023/03/11 05:16:26;;;;;;;4.97;1.10;;;1.00;99.90;;;;;;5009633;28;20429;-55
2023/03/11 05:18:51;;;;;;;8.50;1.40;;;1.00;99.90;;;;;;5009070;28;20484;-55
2023/03/11 05:21:17;;;;;;;4.85;1.10;;;0.90;99.90;;;;;;5010019;28;20770;-55
2023/03/11 05:23:44;;;;;;;4.10;0.90;;;1.10;99.90;;;;;;5009281;28;20882;-59
2023/03/11 05:26:10;;;;;;;7.70;0.98;;;1.10;99.90;;;;;;5010297;28;20404;-55
2023/03/11 05:28:35;;;;;;;5.43;0.98;;;1.10;99.90;;;;;;5010052;28;20840;-55
2023/03/11 05:31:01;;;;;;;4.65;0.80;;;1.00;99.90;;;;;;5009575;28;20448;-55
2023/03/11 05:33:31;;;;;;;4.70;0.90;;;1.00;99.90;;;;;;5009665;28;20408;-56
2023/03/11 05:36:03;;;;;;;8.32;1.23;;;0.90;99.90;;;;;;5009506;28;20397;-56
2023/03/11 05:38:29;;;;;;;5.00;1.00;;;0.90;99.90;;;;;;5010168;28;20885;-55
2023/03/11 05:40:54;;;;;;;5.40;1.20;;;0.80;99.90;;;;;;5001378;28;20417;-56
2023/03/11 05:43:20;;;;;;;5.30;0.87;;;0.80;99.90;;;;;;5003125;28;20488;-55
2023/03/11 05:45:45;;;;;;;5.50;0.90;;;0.70;99.90;;;;;;5008794;28;20423;-55
2023/03/11 05:48:11;;;;;;;5.00;1.10;;;0.70;99.90;;;;;;4997830;28;20428;-55
2023/03/11 05:50:38;;;;;;;8.63;1.20;;;0.80;99.90;;;;;;5002226;28;21006;-55
2023/03/11 05:53:04;;;;;;;7.90;1.10;;;2.40;99.90;;;;;;5003123;28;20783;-55
2023/03/11 05:55:29;;;;;;;6.15;0.80;;;0.80;99.90;;;;;;5009223;28;20381;-55
2023/03/11 05:57:55;;;;;;;5.40;1.00;;;0.90;99.90;;;;;;5008512;28;20429;-55
2023/03/11 06:00:21;;;;;;;4.50;0.80;;;0.80;99.90;;;;;;5009094;28;20392;-55
2023/03/11 06:02:46;;;;;;;5.47;1.20;;;0.80;99.90;;;;;;5007813;28;20827;-55
2023/03/11 06:05:12;;;;;;;5.10;0.75;;;0.80;99.90;;;;;;5008803;28;20480;-56
2023/03/11 06:07:38;;;;;;;4.40;0.90;;;0.80;99.90;;;;;;4993337;28;20479;-55
2023/03/11 06:10:04;;;;;;;7.40;1.20;;;1.60;99.90;;;;;;4985030;28;20410;-56
2023/03/11 06:12:33;;;;;;;5.20;0.90;;;0.70;99.90;;;;;;5003761;28;20901;-55
2023/03/11 06:15:00;;;;;;;5.50;1.00;;;0.70;99.90;;;;;;5008256;28;20421;-55
2023/03/11 06:17:25;;;;;;;5.00;0.90;;;0.90;99.90;;;;;;5008745;28;20420;-56
2023/03/11 06:19:51;;;;;;;4.90;1.00;;;1.30;33.70;;;;;;4979084;28;20411;-56
2023/03/11 06:22:16;;;;;;;5.40;1.00;;;1.80;1.00;;;;;;4998271;28;20405;-56
2023/03/11 06:24:42;;;;;;;8.18;1.20;;;2.20;1.00;;;;;;5008964;28;20882;-59
2023/03/11 06:27:09;;;;;;;7.17;1.00;;;2.50;1.00;;;;;;5010854;28;20401;-56
2023/03/11 06:29:34;;;;;;;4.50;0.90;;;4.50;1.00;;;;;;5013173;28;20408;-57
2023/03/11 06:32:00;;;;;;;6.80;1.40;;;2.30;1.00;;;;;;5011611;28;20420;-55
2023/03/11 06:34:25;;;;;;;4.97;0.70;;;2.10;1.00;;;;;;5012913;28;20436;-56
2023/03/11 06:36:51;;;;;;;8.20;1.00;;;1.90;1.00;;;;;;5012337;28;20431;-55
2023/03/11 06:39:17;;;;;;;5.57;0.90;;;1.80;1.00;;;;;;5013043;28;20393;-56
2023/03/11 06:41:42;;;;;;;6.40;0.90;;;1.90;1.00;;;;;;5012980;28;20502;-59
2023/03/11 06:44:09;;;;;;;8.10;1.00;;;2.10;1.00;;;;;;5005826;28;20893;-56
2023/03/11 06:46:35;;;;;;;4.50;0.90;;;2.30;1.00;;;;;;5013415;28;20408;-55
2023/03/11 06:49:00;;;;;;;7.10;1.40;;;3.00;1.00;;;;;;5012206;28;20496;-54
2023/03/11 06:51:26;;;;;;;4.70;0.80;;;3.70;1.00;;;;;;5012626;28;20821;-54
2023/03/11 06:53:52;;;;;;;4.80;1.10;;;4.10;1.00;;;;;;5009087;28;20404;-54
2023/03/11 06:56:19;;;;;;;6.20;1.00;;;5.00;1.00;;;;;;4996946;28;20438;-54
2023/03/11 06:58:45;;;;;;;6.00;0.90;;;4.70;1.00;;;;;;4999394;28;20396;-55
2023/03/11 07:01:22;;;;;;;4.80;1.00;;;4.60;1.00;;;;;;5006587;28;20403;-54
2023/03/11 07:03:49;;;;;;;5.00;0.98;;;4.50;99.90;;;;;;4995422;28;20418;-54
2023/03/11 07:06:23;;;;;;;5.25;0.70;;;5.20;99.90;;;;;;4989121;28;20414;-54
2023/03/11 07:08:50;;;;;;;6.80;0.88;;;5.90;99.90;;;;;;4994177;28;20920;-54
2023/03/11 07:11:22;;;;;;;5.90;1.00;;;5.70;99.90;;;;;;4985911;28;20500;-55
2023/03/11 07:13:49;;;;;;;4.70;0.65;;;4.20;99.90;;;;;;4985756;28;20501;-53
2023/03/11 07:16:19;;;;;;;7.10;1.30;;;5.10;99.90;;;;;;4992358;28;20424;-54
2023/03/11 07:18:46;;;;;;;4.97;1.00;;;3.90;99.90;;;;;;4989119;28;20395;-54
2023/03/11 07:21:17;;;;;;;7.82;1.00;;;3.90;99.90;;;;;;4988710;28;20406;-54
2023/03/11 07:23:43;;;;;;;7.20;1.10;;;3.70;99.90;;;;;;4985719;28;20454;-57
2023/03/11 07:26:10;;;;;;;7.40;0.90;;;4.00;99.90;;;;;;4990495;28;20489;-55
2023/03/11 07:28:36;;;;;;;7.60;1.07;;;4.10;99.90;;;;;;4996907;28;20520;-54
2023/03/11 07:31:12;;;;;;;8.50;1.02;;;6.40;99.90;;;;;;4978845;28;20502;-54
2023/03/11 07:33:37;;;;;;;7.57;1.25;;;6.20;99.90;;;;;;4987528;28;20402;-55
2023/03/11 07:36:13;;;;;;;5.50;0.90;;;4.50;99.90;;;;;;4988173;28;20400;-54
2023/03/11 07:38:39;;;;;;;6.78;1.40;;;4.40;99.90;;;;;;4990123;28;20383;-54
2023/03/11 07:41:05;;;;;;;6.90;1.33;;;4.80;99.90;;;;;;4985512;28;20938;-54
2023/03/11 07:43:31;;;;;;;5.57;1.30;;;5.50;99.90;;;;;;5004053;28;20404;-54
2023/03/11 07:46:17;;;;;;;5.40;1.10;;;6.70;99.90;;;;;;4986287;28;20397;-55
2023/03/11 07:48:44;;;;;;;5.60;1.08;;;8.20;99.90;;;;;;4977321;28;20423;-58
2023/03/11 07:51:13;;;;;;;7.28;1.30;;;8.30;99.90;;;;;;4981188;28;20465;-54
2023/03/11 07:53:41;;;;;;;5.00;1.15;;;9.70;99.90;;;;;;4987706;28;20408;-55
2023/03/11 07:56:09;;;;;;;9.43;1.20;;;9.70;99.90;;;;;;4985568;28;20495;-56
2023/03/11 07:58:35;;;;;;;6.00;1.20;;;10.60;99.90;;;;;;4991969;28;20411;-55
2023/03/11 08:01:10;;;;;;;5.30;1.35;;;10.60;99.90;;;;;;4986245;28;20408;-56
2023/03/11 08:03:37;;;;;;;6.00;1.50;;;10.40;99.90;;;;;;4984923;28;20414;-58
2023/03/11 08:06:13;;;;;;;5.75;1.20;;;10.30;99.90;;;;;;4988308;28;20480;-55
2023/03/11 08:08:40;;;;;;;5.65;1.40;;;10.50;99.90;;;;;;4990921;28;20414;-56
2023/03/11 08:11:06;;;;;;;6.93;1.30;;;10.30;99.90;;;;;;4998662;28;20531;-57
2023/03/11 08:13:33;;;;;;;7.00;1.70;;;10.60;99.90;;;;;;4981073;28;20499;-56
2023/03/11 08:16:01;;;;;;;5.80;1.33;;;10.60;99.90;;;;;;4978406;28;20494;-57
2023/03/11 08:18:27;;;;;;;7.55;1.40;;;10.30;99.90;;;;;;4986915;28;20406;-57
2023/03/11 08:20:54;;;;;;;7.10;1.75;;;10.30;99.90;;;;;;4990544;28;20418;-56
2023/03/11 08:23:19;;;;;;;7.55;1.40;;;9.90;99.90;;;;;;4988866;28;22039;-56
2023/03/11 08:25:45;;;;;;;7.80;1.80;;;9.80;99.90;;;;;;4989994;28;20942;-56
2023/03/11 08:28:11;;;;;;;5.88;1.17;;;9.50;99.90;;;;;;4983398;28;20435;-55
2023/03/11 08:30:37;;;;;;;4.93;1.30;;;10.20;99.90;;;;;;4974096;28;20483;-56
2023/03/11 08:33:03;;;;;;;5.90;1.60;;;10.40;99.90;;;;;;4984179;28;20416;-56
2023/03/11 08:35:30;;;;;;;6.82;1.50;;;10.30;99.90;;;;;;4982609;28;20408;-55
2023/03/11 08:37:55;;;;;;;7.20;1.70;;;9.90;99.90;;;;;;4990187;28;20496;-57
2023/03/11 08:40:21;;;;;;;6.97;1.53;;;10.70;99.90;;;;;;4987805;28;20495;-56
2023/03/11 08:42:47;;;;;;;7.97;1.45;;;10.90;99.90;;;;;;5000340;28;20409;-56
2023/03/11 08:45:12;;;;;;;7.83;1.80;;;11.10;99.90;;;;;;5005281;28;20420;-55
2023/03/11 08:47:39;;;;;;;8.70;2.43;;;;;;;;;;4988891;28;20487;-57
2023/03/11 08:50:14;;;;;;;6.80;2.40;;;13.10;99.90;;;;;;4988939;28;20538;-56
2023/03/11 08:52:40;;;;;;;8.43;2.20;;;12.00;99.90;;;;;;5000688;28;20440;-58
2023/03/11 08:55:07;;;;;;;8.00;2.50;;;12.40;99.90;;;;;;5003941;28;20403;-56
2023/03/11 08:57:33;;;;;;;7.35;2.90;;;12.20;99.90;;;;;;4998824;28;20398;-56
2023/03/11 08:59:59;;;;;;;8.20;3.20;;;13.10;99.90;;;;;;5007796;28;20404;-56
2023/03/11 09:02:26;;;;;;;6.80;3.73;;;13.20;99.90;;;;;;5008701;28;20381;-55
2023/03/11 09:04:52;;;;;;;6.97;5.80;;;13.80;99.90;;;;;;4995517;28;20979;-56
2023/03/11 09:07:18;;;;;;;8.40;6.00;;;14.70;99.90;;;;;;5009500;28;20435;-55
2023/03/11 09:09:43;;;;;;;9.60;5.60;;;14.10;99.90;;;;;;4997444;28;20450;-59
2023/03/11 09:12:12;;;;;;;7.80;4.10;;;;;;;;;;4998726;28;20467;-55
2023/03/11 09:14:39;;;;;;;8.05;1.55;;;13.40;99.90;;;;;;5000392;28;20733;-55
2023/03/11 09:17:05;;;;;;;6.10;1.30;;;;;;;;;;4991735;28;20561;-55
2023/03/11 09:19:31;;;;;;;8.10;1.75;;;;;;;;;;4983198;28;20969;-58
2023/03/11 09:21:59;;;;;;;11.90;6.10;;;14.80;1.00;;;;;;4995898;28;20402;-56
2023/03/11 09:24:25;;;;;;;9.88;6.88;;;;;;;;;;4999829;28;20418;-56
2023/03/11 09:26:51;;;;;;;9.27;7.40;;;15.60;99.90;;;;;;5002938;28;20412;-56
2023/03/11 09:29:17;;;;;;;8.40;6.80;;;15.20;99.90;;;;;;5006253;28;20388;-55
2023/03/11 09:31:43;;;;;;;10.82;6.20;;;;;;;;;;5008665;28;20450;-59
2023/03/11 09:34:11;;;;;;;6.93;4.93;;;13.30;99.90;;;;;;5008384;28;20862;-56
2023/03/11 09:36:37;;;;;;;8.95;4.32;;;;;;;;;;5008697;28;20397;-56
2023/03/11 09:39:03;;;;;;;8.50;4.93;;;;;;;;;;5008773;28;20463;-56
2023/03/11 09:41:40;;;;;;;8.27;5.53;;;14.70;99.90;;;;;;5009910;28;20385;-56
2023/03/11 09:44:17;;;;;;;9.00;5.80;;;14.10;99.90;;;;;;5008274;28;20432;-55
2023/03/11 09:47:09;;;;;;;7.47;5.00;;;13.00;99.90;;;;;;5009441;28;20416;-59
2023/03/11 09:49:53;;;;;;;8.07;5.60;;;;;;;;;;5000839;28;20897;-57
2023/03/11 09:52:33;;;;;;;9.40;6.77;;;15.50;99.90;;;;;;4979175;28;20412;-57
2023/03/11 09:55:03;;;;;;;7.63;6.50;;;15.30;99.90;;;;;;4986223;28;20398;-57
2023/03/11 09:57:33;;;;;;;8.43;6.23;;;12.80;99.90;;;;;;4989220;28;20461;-57
2023/03/11 10:00:03;;;;;;;7.47;5.20;;;12.60;99.90;;;;;;4982381;28;20468;-57
2023/03/11 10:02:31;;;;;;;8.85;4.40;;;12.40;99.90;;;;;;4983932;28;20769;-55
2023/03/11 10:05:06;;;;;;;6.10;3.50;;;12.00;99.90;;;;;;5002700;28;20441;-55
2023/03/11 10:07:39;;;;;;;7.80;4.32;;;11.10;99.90;;;;;;4987410;28;20893;-55
2023/03/11 10:10:06;;;;;;;7.28;3.80;;;10.20;99.90;;;;;;5000046;28;20921;-55
2023/03/11 10:13:02;;;;;;;6.80;3.97;;;10.70;99.90;;;;;;4999098;28;20478;-56
2023/03/11 10:15:47;;;;;;;8.82;4.03;;;11.40;99.90;;;;;;4989004;28;20770;-56
2023/03/11 10:18:13;;;;;;;11.20;4.30;;;;;;;;;;4996937;28;20895;-56
2023/03/11 10:20:51;;;;;;;7.00;4.53;;;14.10;99.90;;;;;;5001921;28;20403;-58
2023/03/11 10:23:35;;;;;;;6.45;4.80;;;14.10;99.90;;;;;;4997777;28;20384;-56
2023/03/11 10:26:24;;;;;;;5.75;4.00;;;13.50;99.90;;;;;;5004187;28;21009;-58
2023/03/11 10:29:02;;;;;;;7.23;4.90;;;13.40;99.90;;;;;;4986504;28;20411;-56
2023/03/11 10:31:52;;;;;;;6.43;3.90;;;12.90;99.90;;;;;;4983101;28;20424;-57
2023/03/11 10:34:20;;;;;;;7.10;3.60;;;11.90;99.90;;;;;;5009434;28;20868;-55
2023/03/11 10:37:02;;;;;;;6.20;3.50;;;10.40;99.90;;;;;;4995347;28;20403;-56
2023/03/11 10:39:30;;;;;;;7.60;3.50;;;9.70;99.90;;;;;;4994788;28;20407;-56
2023/03/11 10:42:03;;;;;;;6.00;3.60;;;10.30;99.90;;;;;;5001740;28;20389;-56
2023/03/11 10:44:40;;;;;;;8.47;3.97;;;11.70;99.90;;;;;;4997565;28;20413;-56
2023/03/11 10:47:22;;;;;;;6.05;3.88;;;12.40;99.90;;;;;;5003410;28;20445;-57
2023/03/11 10:49:48;;;;;;;7.50;3.78;;;11.50;99.90;;;;;;4985401;28;20765;-58
2023/03/11 10:52:14;;;;;;;6.22;3.50;;;10.80;99.90;;;;;;4978970;28;20404;-55
2023/03/11 10:54:46;;;;;;;7.50;3.60;;;10.80;99.90;;;;;;4976608;28;20472;-55
2023/03/11 10:57:38;;;;;;;7.97;3.90;;;11.70;99.90;;;;;;4999907;28;20440;-57
2023/03/11 11:00:16;;;;;;;6.00;3.60;;;11.50;99.90;;;;;;4983096;28;20426;-55
2023/03/11 11:02:56;;;;;;;5.50;3.30;;;11.20;99.90;;;;;;4978681;28;20403;-60
2023/03/11 11:05:32;;;;;;;6.03;3.00;;;11.50;99.90;;;;;;4970093;28;20892;-55
2023/03/11 11:08:18;;;;;;;6.80;2.90;;;10.90;99.90;;;;;;4979815;28;20421;-56
2023/03/11 11:10:55;;;;;;;9.52;3.25;;;10.40;99.90;;;;;;4988821;28;20487;-59
2023/03/11 11:13:24;;;;;;;5.80;3.83;;;9.90;99.90;;;;;;4997773;28;20405;-55
2023/03/11 11:15:57;;;;;;;5.70;3.10;;;9.50;99.90;;;;;;5007685;28;20418;-56
2023/03/11 11:18:25;;;;;;;6.50;2.80;;;9.80;99.90;;;;;;4993099;28;20756;-54
2023/03/11 11:21:06;;;;;;;6.05;2.53;;;9.90;99.90;;;;;;4990567;28;20412;-55
2023/03/11 11:23:37;;;;;;;6.07;2.40;;;9.50;99.90;;;;;;4981984;28;20471;-54
2023/03/11 11:26:13;;;;;;;6.10;2.05;;;9.10;99.90;;;;;;4973050;28;21029;-55
2023/03/11 11:28:39;;;;;;;7.35;2.40;;;7.80;99.90;;;;;;4984353;28;20844;-55
2023/03/11 11:31:18;;;;;;;6.57;2.00;;;7.90;99.90;;;;;;4993123;28;20505;-56
2023/03/11 11:33:56;;;;;;;7.03;2.17;;;8.50;99.90;;;;;;5012236;28;20412;-59
2023/03/11 11:36:29;;;;;;;6.60;2.10;;;8.60;99.90;;;;;;5012339;28;20393;-56
2023/03/11 11:38:55;;;;;;;5.80;2.00;;;9.50;99.90;;;;;;5011032;28;20415;-55
2023/03/11 11:41:23;;;;;;;6.50;2.10;;;10.10;99.90;;;;;;5008874;28;20401;-56
2023/03/11 11:43:53;;;;;;;4.82;2.00;;;9.80;99.90;;;;;;5007552;28;20792;-56
2023/03/11 11:46:43;;;;;;;6.97;2.20;;;9.70;99.90;;;;;;5009434;28;20418;-55
2023/03/11 11:49:20;;;;;;;6.03;2.30;;;9.30;99.90;;;;;;5005006;28;20419;-55
2023/03/11 11:52:08;;;;;;;6.43;2.45;;;9.20;99.90;;;;;;5001876;28;20431;-57
2023/03/11 11:54:39;;;;;;;7.18;2.45;;;9.50;99.90;;;;;;5003803;28;20394;-56
2023/03/11 11:57:13;;;;;;;5.75;2.17;;;9.80;99.90;;;;;;4982856;28;20402;-56
2023/03/11 11:59:39;;;;;;;7.60;2.00;;;10.10;99.90;;;;;;4988039;28;20424;-56
2023/03/11 12:02:11;;;;;;;5.40;2.17;;;10.10;99.90;;;;;;4996309;28;20839;-56
2023/03/11 12:04:40;;;;;;;5.38;2.00;;;9.60;99.90;;;;;;4994126;28;20412;-55
2023/03/11 12:07:20;;;;;;;6.75;1.90;;;9.90;99.90;;;;;;4997368;28;20413;-56
2023/03/11 12:10:02;;;;;;;4.90;1.90;;;9.50;99.90;;;;;;4999105;28;20408;-56
2023/03/11 12:12:49;;;;;;;5.35;1.80;;;9.00;99.90;;;;;;5001866;28;20414;-56
2023/03/11 12:15:16;;;;;;;6.88;2.55;;;8.40;99.90;;;;;;4999183;28;20430;-55
2023/03/11 12:17:45;;;;;;;6.90;2.20;;;8.50;99.90;;;;;;4995981;28;20936;-59
2023/03/11 12:20:14;;;;;;;7.13;2.20;;;9.20;99.90;;;;;;4978805;28;20501;-56
2023/03/11 12:22:52;;;;;;;7.20;1.90;;;9.50;99.90;;;;;;4989801;28;20810;-56
2023/03/11 12:25:56;;;;;;;6.60;2.22;;;9.30;99.90;;;;;;4995506;28;20407;-55
2023/03/11 12:28:22;;;;;;;6.30;2.00;;;9.20;99.90;;;;;;5007540;28;20413;-55
2023/03/11 12:30:54;;;;;;;6.63;2.00;;;9.60;99.90;;;;;;4991272;28;20402;-57
2023/03/11 12:33:29;;;;;;;5.38;2.30;;;9.60;99.90;;;;;;5004079;28;20758;-56
2023/03/11 12:35:57;;;;;;;5.38;2.20;;;9.70;99.90;;;;;;5003438;28;20401;-55
2023/03/11 12:38:30;;;;;;;5.90;2.20;;;9.50;99.90;;;;;;5001287;28;20415;-56
2023/03/11 12:41:05;;;;;;;7.18;1.90;;;8.80;99.90;;;;;;5000031;28;20416;-55
2023/03/11 12:43:32;;;;;;;5.10;2.13;;;8.70;99.90;;;;;;4993423;28;20909;-55
2023/03/11 12:46:03;;;;;;;6.10;2.00;;;8.50;99.90;;;;;;4987315;28;20492;-56
2023/03/11 12:48:28;;;;;;;5.35;1.60;;;8.60;99.90;;;;;;4998804;28;20404;-56
2023/03/11 12:50:56;;;;;;;6.17;1.90;;;9.50;99.90;;;;;;5001572;28;20975;-56
2023/03/11 12:53:48;;;;;;;6.10;2.20;;;8.30;99.90;;;;;;4983619;28;20477;-56
2023/03/11 12:56:41;;;;;;;5.95;1.98;;;8.70;99.90;;;;;;5000098;28;20403;-56
2023/03/11 12:59:07;;;;;;;5.90;2.30;;;9.10;99.90;;;;;;4991524;28;20902;-56
2023/03/11 13:01:54;;;;;;;5.60;2.20;;;9.60;99.90;;;;;;4994177;28;20421;-57
2023/03/11 13:04:42;;;;;;;5.40;2.17;;;9.40;99.90;;;;;;4989339;28;20755;-56
2023/03/11 13:07:56;;;;;;;8.68;2.10;;;9.60;99.90;;;;;;4990903;28;20439;-55
2023/03/11 13:10:41;;;;;;;5.60;2.10;;;9.50;99.90;;;;;;4987627;28;20423;-55
2023/03/11 13:13:28;;;;;;;6.20;2.00;;;9.60;99.90;;;;;;4995052;28;21009;-56